sensor_id;sensor_type;location;lat;lon;timestamp;P1;durP1;ratioP1;P2;durP2;ratioP2
54454;SDS011;40364;52.270;10.546;2023-04-10T00:00:39;42.35;;;19.23;;
54454;SDS011;40364;52.270;10.546;2023-04-10T00:03:07;44.17;;;19.88;;
54454;SDS011;40364;52.270;10.546;2023-04-10T00:05:33;43.10;;;19.55;;
54454;SDS011;40364;52.270;10.546;2023-04-10T00:08:00;42.05;;;18.98;;
54454;SDS011;40364;52.270;10.546;2023-04-10T00:10:27;35.42;;;18.55;;
54454;SDS011;40364;52.270;10.546;2023-04-10T00:12:55;40.28;;;18.67;;
54454;SDS011;40364;52.270;10.546;2023-04-10T00:15:23;41.72;;;19.25;;
54454;SDS011;40364;52.270;10.546;2023-04-10T00:17:50;37.88;;;18.90;;
54454;SDS011;40364;52.270;10.546;2023-04-10T00:20:19;40.50;;;17.77;;
54454;SDS011;40364;52.270;10.546;2023-04-10T00:22:45;40.47;;;17.75;;
54454;SDS011;40364;52.270;10.546;2023-04-10T00:25:12;42.90;;;19.58;;
54454;SDS011;40364;52.270;10.546;2023-04-10T00:27:38;39.47;;;17.70;;
54454;SDS011;40364;52.270;10.546;2023-04-10T00:30:05;38.03;;;18.25;;
54454;SDS011;40364;52.270;10.546;2023-04-10T00:32:32;39.78;;;19.85;;
54454;SDS011;40364;52.270;10.546;2023-04-10T00:34:59;39.67;;;19.15;;
54454;SDS011;40364;52.270;10.546;2023-04-10T00:37:26;41.72;;;18.05;;
54454;SDS011;40364;52.270;10.546;2023-04-10T00:39:52;44.80;;;19.85;;
54454;SDS011;40364;52.270;10.546;2023-04-10T00:42:19;35.08;;;17.42;;
54454;SDS011;40364;52.270;10.546;2023-04-10T00:44:45;37.50;;;17.67;;
54454;SDS011;40364;52.270;10.546;2023-04-10T00:47:11;38.45;;;18.42;;
54454;SDS011;40364;52.270;10.546;2023-04-10T00:49:38;38.13;;;17.77;;
54454;SDS011;40364;52.270;10.546;2023-04-10T00:52:07;35.85;;;17.30;;
54454;SDS011;40364;52.270;10.546;2023-04-10T00:54:33;41.15;;;17.88;;
54454;SDS011;40364;52.270;10.546;2023-04-10T00:57:00;39.10;;;18.65;;
54454;SDS011;40364;52.270;10.546;2023-04-10T00:59:27;35.35;;;17.10;;
54454;SDS011;40364;52.270;10.546;2023-04-10T01:01:54;38.00;;;18.67;;
54454;SDS011;40364;52.270;10.546;2023-04-10T01:04:20;37.28;;;18.10;;
54454;SDS011;40364;52.270;10.546;2023-04-10T01:06:51;34.33;;;17.17;;
54454;SDS011;40364;52.270;10.546;2023-04-10T01:09:22;35.92;;;17.77;;
54454;SDS011;40364;52.270;10.546;2023-04-10T01:11:53;38.22;;;17.90;;
54454;SDS011;40364;52.270;10.546;2023-04-10T01:14:23;36.08;;;16.17;;
54454;SDS011;40364;52.270;10.546;2023-04-10T01:16:52;35.08;;;16.42;;
54454;SDS011;40364;52.270;10.546;2023-04-10T01:19:23;35.35;;;16.95;;
54454;SDS011;40364;52.270;10.546;2023-04-10T01:21:51;36.83;;;18.35;;
54454;SDS011;40364;52.270;10.546;2023-04-10T01:24:23;34.38;;;16.40;;
54454;SDS011;40364;52.270;10.546;2023-04-10T01:26:57;36.00;;;17.70;;
54454;SDS011;40364;52.270;10.546;2023-04-10T01:29:27;38.67;;;16.63;;
54454;SDS011;40364;52.270;10.546;2023-04-10T01:31:56;37.13;;;15.20;;
54454;SDS011;40364;52.270;10.546;2023-04-10T01:34:23;34.03;;;15.25;;
54454;SDS011;40364;52.270;10.546;2023-04-10T01:36:52;33.20;;;15.43;;
54454;SDS011;40364;52.270;10.546;2023-04-10T01:39:20;31.33;;;14.88;;
54454;SDS011;40364;52.270;10.546;2023-04-10T01:41:47;37.92;;;16.77;;
54454;SDS011;40364;52.270;10.546;2023-04-10T01:44:15;33.75;;;15.07;;
54454;SDS011;40364;52.270;10.546;2023-04-10T01:46:45;35.53;;;15.73;;
54454;SDS011;40364;52.270;10.546;2023-04-10T01:49:11;31.67;;;14.43;;
54454;SDS011;40364;52.270;10.546;2023-04-10T01:51:38;30.65;;;14.63;;
54454;SDS011;40364;52.270;10.546;2023-04-10T01:54:05;39.47;;;16.42;;
54454;SDS011;40364;52.270;10.546;2023-04-10T01:56:32;36.95;;;16.25;;
54454;SDS011;40364;52.270;10.546;2023-04-10T01:58:59;37.15;;;16.23;;
54454;SDS011;40364;52.270;10.546;2023-04-10T02:01:25;37.17;;;14.82;;
54454;SDS011;40364;52.270;10.546;2023-04-10T02:03:53;33.53;;;14.93;;
54454;SDS011;40364;52.270;10.546;2023-04-10T02:06:21;31.42;;;15.73;;
54454;SDS011;40364;52.270;10.546;2023-04-10T02:08:49;33.35;;;14.45;;
54454;SDS011;40364;52.270;10.546;2023-04-10T02:11:16;32.70;;;15.18;;
54454;SDS011;40364;52.270;10.546;2023-04-10T02:13:47;31.38;;;14.80;;
54454;SDS011;40364;52.270;10.546;2023-04-10T02:16:14;35.00;;;15.25;;
54454;SDS011;40364;52.270;10.546;2023-04-10T02:18:43;32.28;;;14.40;;
54454;SDS011;40364;52.270;10.546;2023-04-10T02:21:12;29.67;;;13.60;;
54454;SDS011;40364;52.270;10.546;2023-04-10T02:23:39;31.15;;;14.07;;
54454;SDS011;40364;52.270;10.546;2023-04-10T02:26:06;34.28;;;14.85;;
54454;SDS011;40364;52.270;10.546;2023-04-10T02:28:32;32.67;;;14.70;;
54454;SDS011;40364;52.270;10.546;2023-04-10T02:30:59;31.10;;;14.70;;
54454;SDS011;40364;52.270;10.546;2023-04-10T02:33:25;29.17;;;14.55;;
54454;SDS011;40364;52.270;10.546;2023-04-10T02:35:52;31.77;;;14.30;;
54454;SDS011;40364;52.270;10.546;2023-04-10T02:38:19;34.08;;;15.13;;
54454;SDS011;40364;52.270;10.546;2023-04-10T02:40:46;31.38;;;14.90;;
54454;SDS011;40364;52.270;10.546;2023-04-10T02:43:14;28.95;;;14.38;;
54454;SDS011;40364;52.270;10.546;2023-04-10T02:45:40;30.55;;;14.30;;
54454;SDS011;40364;52.270;10.546;2023-04-10T02:48:07;28.98;;;13.38;;
54454;SDS011;40364;52.270;10.546;2023-04-10T02:50:35;30.77;;;14.85;;
54454;SDS011;40364;52.270;10.546;2023-04-10T02:53:01;29.55;;;13.38;;
54454;SDS011;40364;52.270;10.546;2023-04-10T02:55:29;32.40;;;15.02;;
54454;SDS011;40364;52.270;10.546;2023-04-10T02:57:55;29.58;;;13.50;;
54454;SDS011;40364;52.270;10.546;2023-04-10T03:00:22;28.27;;;13.60;;
54454;SDS011;40364;52.270;10.546;2023-04-10T03:02:48;31.17;;;14.18;;
54454;SDS011;40364;52.270;10.546;2023-04-10T03:05:15;28.80;;;13.60;;
54454;SDS011;40364;52.270;10.546;2023-04-10T03:07:41;44.10;;;14.32;;
54454;SDS011;40364;52.270;10.546;2023-04-10T03:10:08;31.15;;;14.27;;
54454;SDS011;40364;52.270;10.546;2023-04-10T03:12:36;29.38;;;14.32;;
54454;SDS011;40364;52.270;10.546;2023-04-10T03:15:02;28.75;;;14.10;;
54454;SDS011;40364;52.270;10.546;2023-04-10T03:17:29;30.80;;;13.88;;
54454;SDS011;40364;52.270;10.546;2023-04-10T03:19:55;36.10;;;14.50;;
54454;SDS011;40364;52.270;10.546;2023-04-10T03:22:22;30.05;;;14.07;;
54454;SDS011;40364;52.270;10.546;2023-04-10T03:24:48;29.98;;;13.80;;
54454;SDS011;40364;52.270;10.546;2023-04-10T03:27:15;31.05;;;15.18;;
54454;SDS011;40364;52.270;10.546;2023-04-10T03:29:42;30.13;;;14.65;;
54454;SDS011;40364;52.270;10.546;2023-04-10T03:32:09;27.73;;;14.43;;
54454;SDS011;40364;52.270;10.546;2023-04-10T03:34:35;27.98;;;14.40;;
54454;SDS011;40364;52.270;10.546;2023-04-10T03:37:02;31.92;;;14.95;;
54454;SDS011;40364;52.270;10.546;2023-04-10T03:39:28;28.27;;;14.32;;
54454;SDS011;40364;52.270;10.546;2023-04-10T03:41:55;34.83;;;15.90;;
54454;SDS011;40364;52.270;10.546;2023-04-10T03:44:21;32.40;;;14.75;;
54454;SDS011;40364;52.270;10.546;2023-04-10T03:46:49;27.67;;;13.98;;
54454;SDS011;40364;52.270;10.546;2023-04-10T03:49:15;34.38;;;15.30;;
54454;SDS011;40364;52.270;10.546;2023-04-10T03:51:41;31.23;;;15.52;;
54454;SDS011;40364;52.270;10.546;2023-04-10T03:54:08;31.67;;;14.88;;
54454;SDS011;40364;52.270;10.546;2023-04-10T03:56:35;34.92;;;15.23;;
54454;SDS011;40364;52.270;10.546;2023-04-10T03:59:01;36.22;;;14.73;;
54454;SDS011;40364;52.270;10.546;2023-04-10T04:01:27;35.22;;;14.98;;
54454;SDS011;40364;52.270;10.546;2023-04-10T04:03:56;32.08;;;15.18;;
54454;SDS011;40364;52.270;10.546;2023-04-10T04:06:22;28.77;;;14.30;;
54454;SDS011;40364;52.270;10.546;2023-04-10T04:08:48;29.90;;;14.77;;
54454;SDS011;40364;52.270;10.546;2023-04-10T04:11:15;31.35;;;14.32;;
54454;SDS011;40364;52.270;10.546;2023-04-10T04:13:41;32.00;;;14.85;;
54454;SDS011;40364;52.270;10.546;2023-04-10T04:16:08;30.98;;;15.07;;
54454;SDS011;40364;52.270;10.546;2023-04-10T04:18:35;31.52;;;14.57;;
54454;SDS011;40364;52.270;10.546;2023-04-10T04:21:02;36.25;;;14.57;;
54454;SDS011;40364;52.270;10.546;2023-04-10T04:23:29;33.00;;;15.25;;
54454;SDS011;40364;52.270;10.546;2023-04-10T04:25:55;29.92;;;14.15;;
54454;SDS011;40364;52.270;10.546;2023-04-10T04:28:22;25.58;;;13.48;;
54454;SDS011;40364;52.270;10.546;2023-04-10T04:30:49;33.92;;;14.77;;
54454;SDS011;40364;52.270;10.546;2023-04-10T04:33:15;30.35;;;14.15;;
54454;SDS011;40364;52.270;10.546;2023-04-10T04:35:42;32.20;;;13.63;;
54454;SDS011;40364;52.270;10.546;2023-04-10T04:38:09;30.90;;;14.32;;
54454;SDS011;40364;52.270;10.546;2023-04-10T04:40:36;27.75;;;13.15;;
54454;SDS011;40364;52.270;10.546;2023-04-10T04:43:02;31.48;;;14.43;;
54454;SDS011;40364;52.270;10.546;2023-04-10T04:45:28;26.73;;;13.80;;
54454;SDS011;40364;52.270;10.546;2023-04-10T04:47:55;26.67;;;13.60;;
54454;SDS011;40364;52.270;10.546;2023-04-10T04:50:21;28.85;;;14.10;;
54454;SDS011;40364;52.270;10.546;2023-04-10T04:52:47;30.60;;;14.27;;
54454;SDS011;40364;52.270;10.546;2023-04-10T04:55:15;30.33;;;13.75;;
54454;SDS011;40364;52.270;10.546;2023-04-10T04:57:42;28.00;;;13.55;;
54454;SDS011;40364;52.270;10.546;2023-04-10T05:00:08;33.67;;;14.73;;
54454;SDS011;40364;52.270;10.546;2023-04-10T05:02:35;29.88;;;14.93;;
54454;SDS011;40364;52.270;10.546;2023-04-10T05:05:01;27.80;;;13.93;;
54454;SDS011;40364;52.270;10.546;2023-04-10T05:07:28;26.50;;;13.38;;
54454;SDS011;40364;52.270;10.546;2023-04-10T05:09:55;31.02;;;13.90;;
54454;SDS011;40364;52.270;10.546;2023-04-10T05:12:23;25.52;;;12.68;;
54454;SDS011;40364;52.270;10.546;2023-04-10T05:14:49;30.90;;;14.50;;
54454;SDS011;40364;52.270;10.546;2023-04-10T05:17:15;28.23;;;14.30;;
54454;SDS011;40364;52.270;10.546;2023-04-10T05:19:42;33.83;;;14.80;;
54454;SDS011;40364;52.270;10.546;2023-04-10T05:22:08;26.00;;;13.55;;
54454;SDS011;40364;52.270;10.546;2023-04-10T05:24:35;28.58;;;13.20;;
54454;SDS011;40364;52.270;10.546;2023-04-10T05:27:01;28.08;;;13.55;;
54454;SDS011;40364;52.270;10.546;2023-04-10T05:29:29;28.13;;;13.93;;
54454;SDS011;40364;52.270;10.546;2023-04-10T05:31:55;28.60;;;13.13;;
54454;SDS011;40364;52.270;10.546;2023-04-10T05:34:22;26.25;;;13.48;;
54454;SDS011;40364;52.270;10.546;2023-04-10T05:36:49;32.53;;;13.07;;
54454;SDS011;40364;52.270;10.546;2023-04-10T05:39:16;23.65;;;12.82;;
54454;SDS011;40364;52.270;10.546;2023-04-10T05:41:42;25.00;;;12.43;;
54454;SDS011;40364;52.270;10.546;2023-04-10T05:44:08;26.65;;;12.75;;
54454;SDS011;40364;52.270;10.546;2023-04-10T05:46:36;24.85;;;11.65;;
54454;SDS011;40364;52.270;10.546;2023-04-10T05:49:02;27.20;;;12.02;;
54454;SDS011;40364;52.270;10.546;2023-04-10T05:51:29;25.25;;;12.25;;
54454;SDS011;40364;52.270;10.546;2023-04-10T05:53:56;24.65;;;11.73;;
54454;SDS011;40364;52.270;10.546;2023-04-10T05:56:22;20.83;;;11.10;;
54454;SDS011;40364;52.270;10.546;2023-04-10T05:58:48;24.38;;;11.98;;
54454;SDS011;40364;52.270;10.546;2023-04-10T06:01:15;21.95;;;11.23;;
54454;SDS011;40364;52.270;10.546;2023-04-10T06:03:42;21.23;;;10.82;;
54454;SDS011;40364;52.270;10.546;2023-04-10T06:06:09;22.52;;;10.50;;
54454;SDS011;40364;52.270;10.546;2023-04-10T06:08:35;21.42;;;10.52;;
54454;SDS011;40364;52.270;10.546;2023-04-10T06:11:02;23.75;;;11.88;;
54454;SDS011;40364;52.270;10.546;2023-04-10T06:13:28;19.92;;;11.23;;
54454;SDS011;40364;52.270;10.546;2023-04-10T06:15:56;21.83;;;11.52;;
54454;SDS011;40364;52.270;10.546;2023-04-10T06:18:22;23.45;;;12.05;;
54454;SDS011;40364;52.270;10.546;2023-04-10T06:20:50;21.63;;;11.48;;
54454;SDS011;40364;52.270;10.546;2023-04-10T06:23:17;22.80;;;11.30;;
54454;SDS011;40364;52.270;10.546;2023-04-10T06:25:43;22.73;;;10.77;;
54454;SDS011;40364;52.270;10.546;2023-04-10T06:28:10;22.42;;;11.57;;
54454;SDS011;40364;52.270;10.546;2023-04-10T06:30:36;24.45;;;12.18;;
54454;SDS011;40364;52.270;10.546;2023-04-10T06:33:02;25.13;;;12.57;;
54454;SDS011;40364;52.270;10.546;2023-04-10T06:35:29;23.25;;;12.50;;
54454;SDS011;40364;52.270;10.546;2023-04-10T06:37:57;21.92;;;12.45;;
54454;SDS011;40364;52.270;10.546;2023-04-10T06:40:23;22.92;;;11.43;;
54454;SDS011;40364;52.270;10.546;2023-04-10T06:42:49;22.60;;;12.00;;
54454;SDS011;40364;52.270;10.546;2023-04-10T06:45:16;22.60;;;12.57;;
54454;SDS011;40364;52.270;10.546;2023-04-10T06:47:42;24.60;;;12.38;;
54454;SDS011;40364;52.270;10.546;2023-04-10T06:50:09;24.83;;;13.07;;
54454;SDS011;40364;52.270;10.546;2023-04-10T06:52:35;25.73;;;13.05;;
54454;SDS011;40364;52.270;10.546;2023-04-10T06:55:03;28.08;;;12.52;;
54454;SDS011;40364;52.270;10.546;2023-04-10T06:57:30;28.33;;;13.02;;
54454;SDS011;40364;52.270;10.546;2023-04-10T06:59:56;26.77;;;12.52;;
54454;SDS011;40364;52.270;10.546;2023-04-10T07:02:23;23.58;;;12.38;;
54454;SDS011;40364;52.270;10.546;2023-04-10T07:04:49;23.23;;;11.90;;
54454;SDS011;40364;52.270;10.546;2023-04-10T07:07:15;22.83;;;12.40;;
54454;SDS011;40364;52.270;10.546;2023-04-10T07:09:43;21.73;;;12.27;;
54454;SDS011;40364;52.270;10.546;2023-04-10T07:12:11;24.65;;;13.45;;
54454;SDS011;40364;52.270;10.546;2023-04-10T07:14:37;22.10;;;12.68;;
54454;SDS011;40364;52.270;10.546;2023-04-10T07:17:03;22.92;;;11.98;;
54454;SDS011;40364;52.270;10.546;2023-04-10T07:19:30;26.33;;;11.75;;
54454;SDS011;40364;52.270;10.546;2023-04-10T07:21:56;24.55;;;13.55;;
54454;SDS011;40364;52.270;10.546;2023-04-10T07:24:23;26.85;;;12.93;;
54454;SDS011;40364;52.270;10.546;2023-04-10T07:26:49;23.92;;;12.63;;
54454;SDS011;40364;52.270;10.546;2023-04-10T07:29:17;24.45;;;12.95;;
54454;SDS011;40364;52.270;10.546;2023-04-10T07:31:43;24.25;;;13.35;;
54454;SDS011;40364;52.270;10.546;2023-04-10T07:34:10;28.95;;;13.10;;
54454;SDS011;40364;52.270;10.546;2023-04-10T07:36:37;26.42;;;13.70;;
54454;SDS011;40364;52.270;10.546;2023-04-10T07:39:03;23.92;;;12.60;;
54454;SDS011;40364;52.270;10.546;2023-04-10T07:41:29;20.67;;;11.32;;
54454;SDS011;40364;52.270;10.546;2023-04-10T07:43:56;22.48;;;12.35;;
54454;SDS011;40364;52.270;10.546;2023-04-10T07:46:24;21.15;;;11.40;;
54454;SDS011;40364;52.270;10.546;2023-04-10T07:48:50;23.70;;;12.35;;
54454;SDS011;40364;52.270;10.546;2023-04-10T07:51:17;23.10;;;12.77;;
54454;SDS011;40364;52.270;10.546;2023-04-10T07:53:43;22.80;;;11.57;;
54454;SDS011;40364;52.270;10.546;2023-04-10T07:56:14;19.02;;;11.27;;
54454;SDS011;40364;52.270;10.546;2023-04-10T07:58:40;19.08;;;10.90;;
54454;SDS011;40364;52.270;10.546;2023-04-10T08:01:07;17.50;;;10.38;;
54454;SDS011;40364;52.270;10.546;2023-04-10T08:03:37;19.58;;;10.45;;
54454;SDS011;40364;52.270;10.546;2023-04-10T08:06:04;19.67;;;10.50;;
54454;SDS011;40364;52.270;10.546;2023-04-10T08:08:33;17.98;;;11.02;;
54454;SDS011;40364;52.270;10.546;2023-04-10T08:10:59;19.98;;;10.82;;
54454;SDS011;40364;52.270;10.546;2023-04-10T08:13:28;19.48;;;10.90;;
54454;SDS011;40364;52.270;10.546;2023-04-10T08:15:54;22.42;;;10.32;;
54454;SDS011;40364;52.270;10.546;2023-04-10T08:18:21;18.80;;;9.52;;
54454;SDS011;40364;52.270;10.546;2023-04-10T08:20:49;17.55;;;10.13;;
54454;SDS011;40364;52.270;10.546;2023-04-10T08:23:16;17.17;;;9.95;;
54454;SDS011;40364;52.270;10.546;2023-04-10T08:25:42;21.88;;;11.48;;
54454;SDS011;40364;52.270;10.546;2023-04-10T08:28:10;20.30;;;10.23;;
54454;SDS011;40364;52.270;10.546;2023-04-10T08:30:37;20.00;;;9.68;;
54454;SDS011;40364;52.270;10.546;2023-04-10T08:33:03;19.38;;;10.50;;
54454;SDS011;40364;52.270;10.546;2023-04-10T08:35:30;19.52;;;10.73;;
54454;SDS011;40364;52.270;10.546;2023-04-10T08:37:58;18.17;;;10.13;;
54454;SDS011;40364;52.270;10.546;2023-04-10T08:40:24;21.90;;;11.57;;
54454;SDS011;40364;52.270;10.546;2023-04-10T08:42:51;20.52;;;10.43;;
54454;SDS011;40364;52.270;10.546;2023-04-10T08:45:17;20.88;;;11.20;;
54454;SDS011;40364;52.270;10.546;2023-04-10T08:47:44;17.85;;;11.35;;
54454;SDS011;40364;52.270;10.546;2023-04-10T08:50:13;19.90;;;11.65;;
54454;SDS011;40364;52.270;10.546;2023-04-10T08:52:42;20.63;;;11.32;;
54454;SDS011;40364;52.270;10.546;2023-04-10T08:55:10;20.23;;;10.63;;
54454;SDS011;40364;52.270;10.546;2023-04-10T08:57:37;21.70;;;12.02;;
54454;SDS011;40364;52.270;10.546;2023-04-10T09:00:06;19.77;;;10.73;;
54454;SDS011;40364;52.270;10.546;2023-04-10T09:02:32;19.67;;;11.13;;
54454;SDS011;40364;52.270;10.546;2023-04-10T09:04:59;19.52;;;10.32;;
54454;SDS011;40364;52.270;10.546;2023-04-10T09:07:27;16.77;;;9.85;;
54454;SDS011;40364;52.270;10.546;2023-04-10T09:09:55;18.55;;;11.60;;
54454;SDS011;40364;52.270;10.546;2023-04-10T09:12:23;19.40;;;10.77;;
54454;SDS011;40364;52.270;10.546;2023-04-10T09:14:49;21.90;;;10.98;;
54454;SDS011;40364;52.270;10.546;2023-04-10T09:17:18;18.65;;;10.60;;
54454;SDS011;40364;52.270;10.546;2023-04-10T09:19:45;21.30;;;12.13;;
54454;SDS011;40364;52.270;10.546;2023-04-10T09:22:12;19.33;;;11.05;;
54454;SDS011;40364;52.270;10.546;2023-04-10T09:24:39;17.27;;;10.77;;
54454;SDS011;40364;52.270;10.546;2023-04-10T09:27:06;19.45;;;11.30;;
54454;SDS011;40364;52.270;10.546;2023-04-10T09:29:42;18.88;;;10.98;;
54454;SDS011;40364;52.270;10.546;2023-04-10T09:32:09;22.73;;;11.95;;
54454;SDS011;40364;52.270;10.546;2023-04-10T09:34:51;20.58;;;11.48;;
54454;SDS011;40364;52.270;10.546;2023-04-10T09:37:18;23.48;;;11.75;;
54454;SDS011;40364;52.270;10.546;2023-04-10T09:39:46;18.13;;;10.73;;
54454;SDS011;40364;52.270;10.546;2023-04-10T09:42:13;21.05;;;11.35;;
54454;SDS011;40364;52.270;10.546;2023-04-10T09:44:40;33.00;;;10.88;;
54454;SDS011;40364;52.270;10.546;2023-04-10T09:47:15;20.92;;;11.52;;
54454;SDS011;40364;52.270;10.546;2023-04-10T09:49:45;19.13;;;11.57;;
54454;SDS011;40364;52.270;10.546;2023-04-10T09:52:16;21.25;;;11.35;;
54454;SDS011;40364;52.270;10.546;2023-04-10T09:54:44;19.25;;;11.20;;
54454;SDS011;40364;52.270;10.546;2023-04-10T09:57:14;20.75;;;11.55;;
54454;SDS011;40364;52.270;10.546;2023-04-10T09:59:43;18.95;;;12.30;;
54454;SDS011;40364;52.270;10.546;2023-04-10T10:02:14;15.45;;;10.00;;
54454;SDS011;40364;52.270;10.546;2023-04-10T10:04:42;17.63;;;10.63;;
54454;SDS011;40364;52.270;10.546;2023-04-10T10:07:09;15.38;;;9.40;;
54454;SDS011;40364;52.270;10.546;2023-04-10T10:09:36;17.63;;;10.60;;
54454;SDS011;40364;52.270;10.546;2023-04-10T10:12:03;17.02;;;10.27;;
54454;SDS011;40364;52.270;10.546;2023-04-10T10:14:30;18.90;;;11.02;;
54454;SDS011;40364;52.270;10.546;2023-04-10T10:17:00;17.05;;;10.63;;
54454;SDS011;40364;52.270;10.546;2023-04-10T10:19:35;17.77;;;10.98;;
54454;SDS011;40364;52.270;10.546;2023-04-10T10:22:06;16.37;;;9.63;;
54454;SDS011;40364;52.270;10.546;2023-04-10T10:24:34;17.80;;;10.55;;
54454;SDS011;40364;52.270;10.546;2023-04-10T10:27:01;17.48;;;10.13;;
54454;SDS011;40364;52.270;10.546;2023-04-10T10:29:30;17.17;;;9.88;;
54454;SDS011;40364;52.270;10.546;2023-04-10T10:31:57;17.35;;;10.88;;
54454;SDS011;40364;52.270;10.546;2023-04-10T10:34:26;17.85;;;10.45;;
54454;SDS011;40364;52.270;10.546;2023-04-10T10:36:55;16.98;;;9.77;;
54454;SDS011;40364;52.270;10.546;2023-04-10T10:39:25;17.48;;;10.20;;
54454;SDS011;40364;52.270;10.546;2023-04-10T10:41:57;17.10;;;10.30;;
54454;SDS011;40364;52.270;10.546;2023-04-10T10:44:27;16.05;;;10.10;;
54454;SDS011;40364;52.270;10.546;2023-04-10T10:46:57;15.52;;;10.70;;
54454;SDS011;40364;52.270;10.546;2023-04-10T10:52:10;14.73;;;10.27;;
54454;SDS011;40364;52.270;10.546;2023-04-10T10:54:36;16.02;;;9.88;;
54454;SDS011;40364;52.270;10.546;2023-04-10T10:57:03;17.55;;;10.32;;
54454;SDS011;40364;52.270;10.546;2023-04-10T11:02:18;14.25;;;10.15;;
54454;SDS011;40364;52.270;10.546;2023-04-10T11:04:46;13.90;;;9.43;;
54454;SDS011;40364;52.270;10.546;2023-04-10T11:07:14;14.40;;;9.88;;
54454;SDS011;40364;52.270;10.546;2023-04-10T11:09:48;13.98;;;9.45;;
54454;SDS011;40364;52.270;10.546;2023-04-10T11:12:15;14.10;;;8.98;;
54454;SDS011;40364;52.270;10.546;2023-04-10T11:14:42;12.23;;;8.85;;
54454;SDS011;40364;52.270;10.546;2023-04-10T11:17:09;12.05;;;7.63;;
54454;SDS011;40364;52.270;10.546;2023-04-10T11:22:23;9.50;;;6.70;;
54454;SDS011;40364;52.270;10.546;2023-04-10T11:24:56;13.00;;;8.75;;
54454;SDS011;40364;52.270;10.546;2023-04-10T11:27:37;11.73;;;7.63;;
54454;SDS011;40364;52.270;10.546;2023-04-10T11:30:08;8.90;;;6.50;;
54454;SDS011;40364;52.270;10.546;2023-04-10T11:35:17;9.52;;;6.68;;
54454;SDS011;40364;52.270;10.546;2023-04-10T11:37:45;8.13;;;6.05;;
54454;SDS011;40364;52.270;10.546;2023-04-10T11:40:12;6.70;;;5.35;;
54454;SDS011;40364;52.270;10.546;2023-04-10T11:42:40;6.00;;;4.70;;
54454;SDS011;40364;52.270;10.546;2023-04-10T11:45:23;6.68;;;4.70;;
54454;SDS011;40364;52.270;10.546;2023-04-10T11:47:50;4.88;;;3.72;;
54454;SDS011;40364;52.270;10.546;2023-04-10T11:50:17;5.07;;;4.20;;
54454;SDS011;40364;52.270;10.546;2023-04-10T11:52:46;5.10;;;4.07;;
54454;SDS011;40364;52.270;10.546;2023-04-10T11:55:13;5.93;;;4.38;;
54454;SDS011;40364;52.270;10.546;2023-04-10T11:57:40;7.28;;;5.03;;
54454;SDS011;40364;52.270;10.546;2023-04-10T12:00:07;5.40;;;3.90;;
54454;SDS011;40364;52.270;10.546;2023-04-10T12:02:34;4.80;;;3.63;;
54454;SDS011;40364;52.270;10.546;2023-04-10T12:05:00;5.28;;;4.10;;
54454;SDS011;40364;52.270;10.546;2023-04-10T12:07:27;5.03;;;3.58;;
54454;SDS011;40364;52.270;10.546;2023-04-10T12:09:57;5.05;;;3.70;;
54454;SDS011;40364;52.270;10.546;2023-04-10T12:12:33;9.23;;;4.28;;
54454;SDS011;40364;52.270;10.546;2023-04-10T12:14:59;5.13;;;3.80;;
54454;SDS011;40364;52.270;10.546;2023-04-10T12:17:26;8.07;;;3.70;;
54454;SDS011;40364;52.270;10.546;2023-04-10T12:19:52;5.40;;;4.10;;
54454;SDS011;40364;52.270;10.546;2023-04-10T12:22:19;5.75;;;3.70;;
54454;SDS011;40364;52.270;10.546;2023-04-10T12:24:46;6.50;;;3.80;;
54454;SDS011;40364;52.270;10.546;2023-04-10T12:27:18;6.22;;;3.90;;
54454;SDS011;40364;52.270;10.546;2023-04-10T12:29:45;6.45;;;3.58;;
54454;SDS011;40364;52.270;10.546;2023-04-10T12:32:12;5.53;;;4.13;;
54454;SDS011;40364;52.270;10.546;2023-04-10T12:34:39;6.50;;;4.53;;
54454;SDS011;40364;52.270;10.546;2023-04-10T12:37:05;6.45;;;4.22;;
54454;SDS011;40364;52.270;10.546;2023-04-10T12:39:33;4.40;;;3.30;;
54454;SDS011;40364;52.270;10.546;2023-04-10T12:42:10;6.50;;;3.45;;
54454;SDS011;40364;52.270;10.546;2023-04-10T12:44:49;11.95;;;3.65;;
54454;SDS011;40364;52.270;10.546;2023-04-10T12:47:16;7.47;;;3.55;;
54454;SDS011;40364;52.270;10.546;2023-04-10T12:52:24;4.30;;;3.33;;
54454;SDS011;40364;52.270;10.546;2023-04-10T12:54:51;4.63;;;3.05;;
54454;SDS011;40364;52.270;10.546;2023-04-10T12:57:24;7.03;;;3.53;;
54454;SDS011;40364;52.270;10.546;2023-04-10T12:59:52;3.80;;;3.22;;
54454;SDS011;40364;52.270;10.546;2023-04-10T13:02:19;3.55;;;2.58;;
54454;SDS011;40364;52.270;10.546;2023-04-10T13:04:47;4.03;;;2.88;;
54454;SDS011;40364;52.270;10.546;2023-04-10T13:07:14;4.53;;;3.10;;
54454;SDS011;40364;52.270;10.546;2023-04-10T13:09:40;6.55;;;3.13;;
54454;SDS011;40364;52.270;10.546;2023-04-10T13:12:06;8.52;;;3.50;;
54454;SDS011;40364;52.270;10.546;2023-04-10T13:14:33;6.00;;;3.35;;
54454;SDS011;40364;52.270;10.546;2023-04-10T13:17:01;3.80;;;2.85;;
54454;SDS011;40364;52.270;10.546;2023-04-10T13:19:27;4.90;;;2.78;;
54454;SDS011;40364;52.270;10.546;2023-04-10T13:21:54;3.67;;;2.70;;
54454;SDS011;40364;52.270;10.546;2023-04-10T13:24:20;4.63;;;3.00;;
54454;SDS011;40364;52.270;10.546;2023-04-10T13:26:47;3.72;;;2.67;;
54454;SDS011;40364;52.270;10.546;2023-04-10T13:29:13;3.30;;;2.90;;
54454;SDS011;40364;52.270;10.546;2023-04-10T13:31:40;7.03;;;3.25;;
54454;SDS011;40364;52.270;10.546;2023-04-10T13:34:08;5.05;;;3.42;;
54454;SDS011;40364;52.270;10.546;2023-04-10T13:36:34;5.25;;;3.83;;
54454;SDS011;40364;52.270;10.546;2023-04-10T13:39:01;4.47;;;3.60;;
54454;SDS011;40364;52.270;10.546;2023-04-10T13:41:27;4.63;;;3.70;;
54454;SDS011;40364;52.270;10.546;2023-04-10T13:43:54;4.97;;;3.45;;
54454;SDS011;40364;52.270;10.546;2023-04-10T13:46:21;6.47;;;3.65;;
54454;SDS011;40364;52.270;10.546;2023-04-10T13:48:47;5.03;;;3.40;;
54454;SDS011;40364;52.270;10.546;2023-04-10T13:51:15;6.75;;;4.10;;
54454;SDS011;40364;52.270;10.546;2023-04-10T13:53:42;6.53;;;4.00;;
54454;SDS011;40364;52.270;10.546;2023-04-10T13:56:08;4.72;;;3.45;;
54454;SDS011;40364;52.270;10.546;2023-04-10T13:58:35;5.28;;;3.70;;
54454;SDS011;40364;52.270;10.546;2023-04-10T14:01:01;7.18;;;3.92;;
54454;SDS011;40364;52.270;10.546;2023-04-10T14:03:28;8.43;;;3.70;;
54454;SDS011;40364;52.270;10.546;2023-04-10T14:05:54;4.65;;;3.40;;
54454;SDS011;40364;52.270;10.546;2023-04-10T14:08:22;5.80;;;3.42;;
54454;SDS011;40364;52.270;10.546;2023-04-10T14:10:48;4.35;;;3.38;;
54454;SDS011;40364;52.270;10.546;2023-04-10T14:13:15;6.88;;;3.17;;
54454;SDS011;40364;52.270;10.546;2023-04-10T14:15:42;4.65;;;3.30;;
54454;SDS011;40364;52.270;10.546;2023-04-10T14:18:08;4.28;;;3.00;;
54454;SDS011;40364;52.270;10.546;2023-04-10T14:20:35;5.78;;;3.30;;
54454;SDS011;40364;52.270;10.546;2023-04-10T14:23:01;12.68;;;3.65;;
54454;SDS011;40364;52.270;10.546;2023-04-10T14:25:29;3.92;;;2.85;;
54454;SDS011;40364;52.270;10.546;2023-04-10T14:27:55;5.57;;;3.10;;